Terminal Aerodrome Forecast
Issued by NWS Duluth, MN

Home | Current Version | Previous Version | Text Only | Print | Product List | Glossary On
Versions: 1 2 3 4 5 6 7 8 9 10 11 12 13 14 15 16 17 18 19 20 21
000
FTUS43 KDLH 250114 AAB
TAFDLH
TAF AMD
KDLH 250114Z 2501/2524 30015G20KT P6SM SCT025 OVC035
     FM250200 30014KT P6SM VCSH BKN025
     FM250400 30014KT P6SM BKN035
     FM251200 32012KT P6SM FEW030
     FM251500 31012KT P6SM SKC=

USA.gov is the U.S. government's official web portal to all federal, state and local government web resources and services.